Portada
METAR-TAF:

METAR-TAF

Aeroports :

Pavlodar, Kazakhstan

latitud: 52-11-42N, longitud: 077-04-26E, altitud: 125 m

Observació

L'informe es va fer fa 38 minuts, a les 00:00 UTC
Vent 6 kt del Sud/Sud-Oest
Temperatura -12°C
Humitat 78%
Pressió 1011 hPa
Visibilitat 10 km o més
sense núvols per sota de 1500 mi sense presència de cumulonimbus.

METAR: UASP 170000Z 20003MPS CAVOK M12/M15 Q1011 R21/0///60 NOSIG RMK QFE747/0996

Hora: 06:38 (00:38 UTC)

Pronòstic

L'informe es va fer fa 1 hora i 38 minuts, a les 23:00 UTC
Pronòstic vàlid del 17 a les 00 UTC al 17 a les 09 UTC
Vent 14 kt del Sud-Oest amb ràfegues de 25 kt
Visibilitat 10 km o més
sense núvols per sota de 1500 mi sense presència de cumulonimbus.
Temporalment
l' 17 a les 00 UTC al 17 a les 06 UTC
Vent 16 kt del Oest amb ràfegues de 29 kt
torb baixa de neu

TAF: UASP 162300Z 1700/1709 22007G13MPS CAVOK TEMPO 1700/1706 27008G15MPS DRSN

Observacions i pronòstics meteorològics de més de 4000 aeroports (METAR i TAF).

Les estacions disponibles són els punts grocs i vermells al mapa.

Posi el ratolí al punt desitjat per veure el nom de l'estació.

Feu clic per veure les observacions i els pronòstics meteorològics.

Per canviar el mapa: feu clic els botons verds amb una creu de color negre per apropar; al botó verd amb un guió per allunyar la imatge; o en les fletxes verdes per a mapes adjacents.


METAR-TAF: